Nissyomaru — JD2650 — position and weather

sailwx.info

Track history (hours):
 
Tides and Currents Weather Stations Pressure Air Temp Water Temp Dewpoint Dewpoint Depression Visibility Wind Speed Wind Dir Waves Ship Positions

Nissyomaru

Last reported at 2014-Oct-18 10:13 UTC. Time now 2014-Oct-22 09:40 UTC.
Position N 35°04' E 139°44'.

Length 75 m; draft 4 m.

Type: Cargo ship. MMSI: 431000572.

Date/timePositionNaut miles runAvg speedWind from/ knotsBaromVisibWave heightAir tempDewpointWater temp
2014-Oct-18 10:13N 35°04' E 139°44'913.4
2014-Oct-18 09:33N 35°13' E 139°47'1111.3
2014-Oct-18 08:33N 35°24' E 139°43'19 1.2
2014-Oct-17 17:15N 35°34' E 140°02'812.0
2014-Oct-17 16:33N 35°30' E 139°53'8 7.3
2014-Oct-17 15:29N 35°22' E 139°53'0 0.0
2014-Oct-17 14:07N 35°22' E 139°53'0 0.0
2014-Oct-17 13:28N 35°22' E 139°53'0 0.0
2014-Oct-17 01:22N 35°22' E 139°53'2 2.8
2014-Oct-17 00:33N 35°23' E 139°50'1 0.8
2014-Oct-16 23:33N 35°24' E 139°50'6 6.4
2014-Oct-16 22:33N 35°19' E 139°44'  
Track history (hours):
 
Tides and Currents Weather Stations Pressure Air Temp Water Temp Dewpoint Dewpoint Depression Visibility Wind Speed Wind Dir Waves Ship Positions

Nissyomaru

Last reported at 2014-Oct-18 10:13 UTC. Time now 2014-Oct-22 09:40 UTC.
Position N 35°04' E 139°44'.

Length 75 m; draft 4 m.

Type: Cargo ship. MMSI: 431000572.

Date/timePositionNaut miles runAvg speedWind from/ knotsBaromVisibWave heightAir tempDewpointWater temp
2014-Oct-18 10:13N 35°04' E 139°44'913.4
2014-Oct-18 09:33N 35°13' E 139°47'1111.3
2014-Oct-18 08:33N 35°24' E 139°43'19 1.2
2014-Oct-17 17:15N 35°34' E 140°02'812.0
2014-Oct-17 16:33N 35°30' E 139°53'8 7.3
2014-Oct-17 15:29N 35°22' E 139°53'0 0.0
2014-Oct-17 14:07N 35°22' E 139°53'0 0.0
2014-Oct-17 13:28N 35°22' E 139°53'0 0.0
2014-Oct-17 01:22N 35°22' E 139°53'2 2.8
2014-Oct-17 00:33N 35°23' E 139°50'1 0.8
2014-Oct-16 23:33N 35°24' E 139°50'6 6.4
2014-Oct-16 22:33N 35°19' E 139°44'  

Dump ship's entire track history